createdAt,value
2022-09-24T00:00:53.296Z,0.50
2022-09-24T00:03:25.287Z,0.50
2022-09-24T00:05:53.662Z,0.40
2022-09-24T00:08:21.678Z,0.40
2022-09-24T00:10:49.907Z,0.30
2022-09-24T00:13:19.139Z,0.50
2022-09-24T00:15:48.748Z,0.40
2022-09-24T00:18:19.171Z,0.50
2022-09-24T00:20:48.547Z,0.60
2022-09-24T00:23:15.879Z,0.70
2022-09-24T00:26:01.352Z,0.50
2022-09-24T00:28:28.942Z,0.40
2022-09-24T00:30:58.311Z,0.50
2022-09-24T00:33:26.442Z,0.60
2022-09-24T00:36:00.871Z,0.47
2022-09-24T00:38:28.260Z,0.50
2022-09-24T00:40:56.115Z,0.50
2022-09-24T00:43:28.467Z,0.50
2022-09-24T00:46:00.991Z,0.50
2022-09-24T00:48:28.359Z,0.50
2022-09-24T00:50:57.163Z,0.50
2022-09-24T00:53:29.023Z,0.50
2022-09-24T00:55:57.410Z,0.60
2022-09-24T00:58:26.002Z,0.50
2022-09-24T01:00:59.978Z,0.57
2022-09-24T01:03:28.614Z,0.50
2022-09-24T01:05:57.846Z,0.40
2022-09-24T01:08:25.419Z,0.40
2022-09-24T01:11:08.049Z,0.40
2022-09-24T01:13:55.350Z,0.40
2022-09-24T01:16:31.128Z,0.50
2022-09-24T01:19:10.550Z,0.50
2022-09-24T01:21:49.059Z,0.50
2022-09-24T01:24:30.287Z,0.52
2022-09-24T01:27:09.292Z,0.50
2022-09-24T01:29:49.977Z,0.50
2022-09-24T01:32:26.763Z,0.60
2022-09-24T01:35:01.899Z,0.40
2022-09-24T01:37:34.279Z,0.40
2022-09-24T01:40:04.140Z,0.40
2022-09-24T01:42:32.550Z,0.40
2022-09-24T01:45:03.343Z,0.30
2022-09-24T01:47:35.297Z,0.40
2022-09-24T01:50:04.379Z,0.38
2022-09-24T01:52:39.391Z,0.40
2022-09-24T01:55:10.962Z,0.40
2022-09-24T01:57:42.860Z,0.40
2022-09-24T02:00:16.239Z,0.50
2022-09-24T02:02:48.070Z,0.40
2022-09-24T02:05:21.066Z,0.40
2022-09-24T02:07:55.165Z,0.50
2022-09-24T02:10:22.654Z,0.50
2022-09-24T02:12:54.025Z,0.40
2022-09-24T02:15:32.218Z,0.50
2022-09-24T02:18:08.211Z,0.50
2022-09-24T02:20:37.842Z,0.50
2022-09-24T02:23:07.259Z,0.60
2022-09-24T02:25:39.894Z,0.50
2022-09-24T02:28:07.261Z,0.50
2022-09-24T02:30:42.230Z,0.50
2022-09-24T02:33:32.617Z,0.50
2022-09-24T02:35:59.162Z,0.50
2022-09-24T02:38:26.518Z,0.50
2022-09-24T02:40:55.210Z,0.50
2022-09-24T02:43:22.644Z,0.50
2022-09-24T02:45:51.288Z,0.50
2022-09-24T02:48:18.713Z,0.50
2022-09-24T02:50:46.583Z,0.47
2022-09-24T02:53:13.906Z,0.43
2022-09-24T02:55:41.262Z,0.50
2022-09-24T02:58:08.592Z,0.50
2022-09-24T03:00:35.920Z,0.50
2022-09-24T03:03:04.615Z,0.40
2022-09-24T03:05:32.004Z,0.40
2022-09-24T03:07:59.564Z,0.45
2022-09-24T03:10:26.905Z,0.50
2022-09-24T03:12:54.237Z,0.50
2022-09-24T03:15:21.566Z,0.50
2022-09-24T03:17:48.955Z,0.50
2022-09-24T03:20:17.683Z,0.50
2022-09-24T03:22:45.060Z,0.40
2022-09-24T03:25:12.410Z,0.40
2022-09-24T03:27:39.730Z,0.40
2022-09-24T03:30:25.627Z,0.40
2022-09-24T03:32:53.052Z,0.50
2022-09-24T03:35:21.692Z,0.40
2022-09-24T03:37:49.469Z,0.50
2022-09-24T03:40:16.980Z,0.50
2022-09-24T03:42:44.698Z,0.50
2022-09-24T03:45:12.262Z,0.50
2022-09-24T03:47:40.428Z,0.70
2022-09-24T03:50:11.568Z,0.63
2022-09-24T03:52:40.655Z,0.70
2022-09-24T03:55:08.979Z,0.63
2022-09-24T03:57:36.355Z,0.70
2022-09-24T04:00:04.524Z,0.70
2022-09-24T04:02:31.946Z,0.70
2022-09-24T04:04:59.341Z,0.60
2022-09-24T04:07:26.731Z,0.60
2022-09-24T04:09:55.390Z,0.60
2022-09-24T04:12:22.998Z,0.70
2022-09-24T04:14:50.328Z,0.70
2022-09-24T04:17:17.707Z,0.70
2022-09-24T04:19:46.096Z,0.60
2022-09-24T04:22:13.692Z,0.60
2022-09-24T04:24:41.020Z,0.55
2022-09-24T04:27:09.676Z,0.50
2022-09-24T04:29:37.004Z,0.52
2022-09-24T04:32:04.344Z,0.50
2022-09-24T04:34:31.963Z,0.50
2022-09-24T04:36:59.279Z,0.50
2022-09-24T04:39:27.735Z,0.50
2022-09-24T04:41:55.379Z,0.50
2022-09-24T04:44:24.236Z,0.50
2022-09-24T04:46:52.077Z,0.50
2022-09-24T04:49:19.513Z,0.50
2022-09-24T04:51:46.833Z,0.47
2022-09-24T04:54:14.163Z,0.57
2022-09-24T04:56:41.505Z,0.50
2022-09-24T04:59:08.893Z,0.60
2022-09-24T05:01:37.623Z,0.50
2022-09-24T05:04:05.364Z,0.50
2022-09-24T05:06:33.819Z,0.50
2022-09-24T05:09:01.427Z,0.40
2022-09-24T05:11:29.021Z,0.40
2022-09-24T05:13:56.381Z,0.60
2022-09-24T05:16:23.936Z,0.52
2022-09-24T05:18:52.599Z,0.50
2022-09-24T05:21:20.095Z,0.60
2022-09-24T05:23:47.442Z,0.60
2022-09-24T05:26:32.192Z,0.52
2022-09-24T05:28:59.530Z,0.60
2022-09-24T05:31:26.928Z,0.57
2022-09-24T05:33:55.572Z,0.50
2022-09-24T05:36:22.950Z,0.50
2022-09-24T05:38:50.413Z,0.57
2022-09-24T05:41:17.746Z,0.50
2022-09-24T05:43:45.129Z,0.50
2022-09-24T05:46:12.524Z,0.50
2022-09-24T05:48:39.911Z,0.45
2022-09-24T05:51:08.617Z,0.50
2022-09-24T05:53:36.352Z,0.50
2022-09-24T05:56:03.696Z,0.50
2022-09-24T05:58:31.579Z,0.52
2022-09-24T06:01:00.398Z,0.52
2022-09-24T06:03:27.904Z,0.60
2022-09-24T06:05:56.210Z,0.60
2022-09-24T06:08:24.948Z,0.50
2022-09-24T06:10:52.288Z,0.40
2022-09-24T06:13:20.826Z,0.50
2022-09-24T06:15:48.364Z,0.50
2022-09-24T06:18:15.754Z,0.50
2022-09-24T06:20:43.118Z,0.50
2022-09-24T06:23:10.695Z,0.45
2022-09-24T06:25:39.369Z,0.45
2022-09-24T06:28:06.720Z,0.50
2022-09-24T06:30:36.057Z,0.60
2022-09-24T06:33:05.228Z,0.60
2022-09-24T06:35:35.103Z,0.60
2022-09-24T06:38:02.746Z,0.60
2022-09-24T06:40:34.061Z,0.63
2022-09-24T06:43:06.264Z,0.60
2022-09-24T06:45:34.359Z,0.60
2022-09-24T06:48:03.223Z,0.60
2022-09-24T06:50:32.597Z,0.50
2022-09-24T06:52:59.984Z,0.60
2022-09-24T06:55:27.790Z,0.60
2022-09-24T06:58:04.796Z,0.60
2022-09-24T07:00:32.218Z,0.50
2022-09-24T07:02:59.567Z,0.50
2022-09-24T07:05:26.938Z,0.50
2022-09-24T07:07:54.379Z,0.45
2022-09-24T07:10:24.330Z,0.40
2022-09-24T07:12:51.791Z,0.40
2022-09-24T07:15:20.756Z,0.40
2022-09-24T07:17:48.130Z,0.40
2022-09-24T07:20:15.528Z,0.35
2022-09-24T07:22:43.082Z,0.45
2022-09-24T07:25:11.970Z,0.40
2022-09-24T07:27:40.275Z,0.57
2022-09-24T07:30:09.840Z,0.50
2022-09-24T07:32:38.499Z,0.40
2022-09-24T07:35:06.935Z,0.40
2022-09-24T07:37:34.430Z,0.40
2022-09-24T07:40:02.408Z,0.40
2022-09-24T07:42:29.853Z,0.35
2022-09-24T07:44:57.436Z,0.40
2022-09-24T07:47:24.786Z,0.40
2022-09-24T07:49:53.547Z,0.40
2022-09-24T07:52:20.895Z,0.40
2022-09-24T07:54:48.704Z,0.50
2022-09-24T07:57:16.054Z,0.50
2022-09-24T07:59:44.722Z,0.40
2022-09-24T08:02:17.583Z,0.40
2022-09-24T08:04:44.998Z,0.40
2022-09-24T08:07:14.682Z,0.40
2022-09-24T08:09:42.231Z,0.50
2022-09-24T08:12:09.977Z,0.30
2022-09-24T08:14:37.319Z,0.30
2022-09-24T08:17:04.678Z,0.63
2022-09-24T08:19:33.117Z,0.40
2022-09-24T08:22:00.667Z,0.50
2022-09-24T08:24:29.337Z,0.50
2022-09-24T08:26:56.724Z,0.50
2022-09-24T08:29:24.204Z,0.52
2022-09-24T08:31:51.592Z,0.43
2022-09-24T08:34:18.935Z,0.40
2022-09-24T08:36:49.571Z,0.50
2022-09-24T08:39:17.009Z,0.40
2022-09-24T08:42:05.403Z,0.40
2022-09-24T08:44:56.532Z,0.50
2022-09-24T08:47:36.168Z,0.40
2022-09-24T08:50:10.292Z,0.50
2022-09-24T08:52:51.654Z,0.40
2022-09-24T08:55:23.259Z,0.30
2022-09-24T08:58:00.243Z,0.40
2022-09-24T09:00:30.405Z,0.40
2022-09-24T09:03:06.089Z,0.43
2022-09-24T09:05:49.867Z,0.50
2022-09-24T09:08:50.076Z,0.57
2022-09-24T09:11:17.182Z,0.43
2022-09-24T09:13:52.789Z,0.60
2022-09-24T09:16:25.956Z,0.50
2022-09-24T09:18:59.681Z,0.52
2022-09-24T09:21:31.948Z,0.47
2022-09-24T09:24:02.334Z,0.40
2022-09-24T09:26:29.739Z,0.40
2022-09-24T09:29:00.946Z,0.32
2022-09-24T09:31:37.469Z,0.30
2022-09-24T09:34:28.205Z,0.30
2022-09-24T09:37:08.659Z,0.40
2022-09-24T09:39:46.565Z,0.38
2022-09-24T09:42:27.883Z,0.40
2022-09-24T09:44:56.882Z,0.40
2022-09-24T09:47:35.998Z,0.30
2022-09-24T09:50:06.868Z,0.30
2022-09-24T09:52:41.452Z,0.43
2022-09-24T09:55:20.666Z,0.30
2022-09-24T09:57:48.466Z,0.50
2022-09-24T10:00:27.987Z,0.40
2022-09-24T10:02:56.273Z,0.57
2022-09-24T10:05:28.550Z,0.40
2022-09-24T10:07:57.624Z,0.60
2022-09-24T10:10:26.253Z,0.30
2022-09-24T10:12:54.812Z,0.38
2022-09-24T10:15:25.726Z,0.50
2022-09-24T10:17:55.969Z,0.40
2022-09-24T10:20:27.749Z,0.38
2022-09-24T10:22:59.379Z,0.50
2022-09-24T10:25:29.392Z,0.43
2022-09-24T10:28:19.894Z,0.60
2022-09-24T10:30:53.114Z,0.50
2022-09-24T10:33:22.160Z,0.45
2022-09-24T10:35:49.682Z,0.40
2022-09-24T10:38:19.155Z,0.50
2022-09-24T10:40:47.627Z,0.40
2022-09-24T10:43:20.263Z,0.40
2022-09-24T10:46:12.903Z,0.40
2022-09-24T10:48:46.094Z,0.52
2022-09-24T10:51:29.306Z,0.50
2022-09-24T10:54:10.658Z,0.30
2022-09-24T10:56:45.967Z,0.22
2022-09-24T10:59:27.967Z,0.40
2022-09-24T11:02:10.664Z,0.50
2022-09-24T11:04:51.798Z,0.50
2022-09-24T11:07:39.284Z,0.38
2022-09-24T11:10:21.935Z,0.30
2022-09-24T11:13:02.250Z,0.40
2022-09-24T11:15:45.620Z,0.40
2022-09-24T11:18:31.508Z,0.50
2022-09-24T11:21:14.249Z,0.50
2022-09-24T11:23:58.287Z,0.40
2022-09-24T11:26:30.153Z,0.30
2022-09-24T11:29:16.837Z,0.40
2022-09-24T11:31:54.191Z,0.50
2022-09-24T11:34:38.174Z,0.57
2022-09-24T11:37:23.182Z,0.60
2022-09-24T11:40:05.447Z,0.50
2022-09-24T11:42:38.565Z,0.50
2022-09-24T11:45:28.621Z,0.70
2022-09-24T11:48:14.161Z,0.77
2022-09-24T11:50:54.233Z,0.45
2022-09-24T11:53:30.782Z,0.60
2022-09-24T11:56:02.679Z,0.32
2022-09-24T11:58:34.402Z,0.38
2022-09-24T12:01:11.276Z,0.45
2022-09-24T12:03:45.006Z,0.40
2022-09-24T12:06:16.148Z,0.60
2022-09-24T12:08:50.419Z,0.50
2022-09-24T12:13:52.300Z,0.50
2022-09-24T12:16:24.502Z,0.30
2022-09-24T12:18:57.258Z,0.45
2022-09-24T12:21:30.323Z,0.38
2022-09-24T12:24:05.045Z,0.40
2022-09-24T12:26:36.911Z,0.40
2022-09-24T12:29:39.517Z,0.40
2022-09-24T12:32:32.239Z,0.50
2022-09-24T12:35:09.576Z,0.50
2022-09-24T12:37:41.076Z,0.50
2022-09-24T12:40:26.930Z,0.70
2022-09-24T12:43:00.566Z,0.73
2022-09-24T12:45:28.469Z,0.90
2022-09-24T12:47:59.816Z,0.70
2022-09-24T12:50:29.837Z,0.90
2022-09-24T12:52:57.859Z,0.73
2022-09-24T12:55:28.805Z,0.52
2022-09-24T12:57:59.251Z,0.73
2022-09-24T13:00:39.945Z,0.50
2022-09-24T13:03:27.132Z,0.52
2022-09-24T13:05:55.458Z,0.50
2022-09-24T13:08:27.515Z,0.38
2022-09-24T13:10:58.758Z,0.50
2022-09-24T13:13:28.665Z,0.55
2022-09-24T13:16:02.482Z,0.60
2022-09-24T13:18:32.104Z,0.40
2022-09-24T13:21:03.151Z,0.60
2022-09-24T13:23:35.267Z,0.57
2022-09-24T13:26:05.897Z,0.70
2022-09-24T13:28:42.625Z,0.40
2022-09-24T13:31:21.020Z,0.40
2022-09-24T13:33:52.596Z,0.50
2022-09-24T13:36:26.919Z,0.60
2022-09-24T13:39:01.988Z,0.57
2022-09-24T13:41:42.947Z,0.65
2022-09-24T13:44:18.049Z,0.80
2022-09-24T13:46:48.547Z,0.70
2022-09-24T13:49:19.301Z,0.82
2022-09-24T13:51:51.078Z,0.43
2022-09-24T13:54:25.475Z,0.70
2022-09-24T13:57:10.650Z,0.60
2022-09-24T13:59:38.543Z,0.45
2022-09-24T14:02:23.781Z,0.35
2022-09-24T14:04:54.680Z,0.52
2022-09-24T14:07:22.698Z,0.40
2022-09-24T14:09:51.323Z,0.50
2022-09-24T14:12:22.793Z,0.50
2022-09-24T14:14:58.271Z,0.30
2022-09-24T14:17:26.547Z,0.40
2022-09-24T14:19:57.868Z,0.40
2022-09-24T14:22:29.854Z,0.55
2022-09-24T14:25:01.840Z,0.60
2022-09-24T14:27:33.794Z,0.50
2022-09-24T14:30:03.084Z,0.55
2022-09-24T14:32:32.546Z,0.50
2022-09-24T14:35:01.895Z,1.42
2022-09-24T14:37:32.604Z,0.60
2022-09-24T14:40:04.650Z,0.80
2022-09-24T14:42:40.423Z,0.65
2022-09-24T14:45:10.757Z,0.73
2022-09-24T14:47:38.424Z,0.85
2022-09-24T14:50:35.338Z,0.70
2022-09-24T14:53:03.198Z,0.75
2022-09-24T14:55:39.195Z,0.75
2022-09-24T14:58:24.016Z,0.70
2022-09-24T15:00:56.171Z,0.65
2022-09-24T15:03:29.242Z,0.60
2022-09-24T15:06:05.513Z,0.70
2022-09-24T15:08:32.937Z,0.50
2022-09-24T15:11:02.774Z,0.57
2022-09-24T15:13:34.234Z,0.73
2022-09-24T15:16:04.120Z,0.70
2022-09-24T15:18:31.712Z,0.65
2022-09-24T15:20:59.798Z,0.90
2022-09-24T15:23:27.169Z,0.40
2022-09-24T15:25:54.911Z,0.65
2022-09-24T15:28:27.053Z,0.50
2022-09-24T15:30:56.853Z,0.40
2022-09-24T15:33:24.711Z,0.47
2022-09-24T15:35:52.555Z,0.50
2022-09-24T15:38:20.965Z,0.50
2022-09-24T15:40:51.421Z,0.50
2022-09-24T15:43:23.359Z,0.50
2022-09-24T15:45:51.549Z,0.40
2022-09-24T15:48:20.331Z,0.40
2022-09-24T15:50:50.283Z,0.40
2022-09-24T15:53:20.040Z,0.40
2022-09-24T15:55:51.116Z,0.47
2022-09-24T15:58:19.635Z,0.50
2022-09-24T16:00:47.321Z,0.50
2022-09-24T16:03:20.945Z,0.57
2022-09-24T16:05:49.323Z,0.30
2022-09-24T16:08:16.742Z,0.30
2022-09-24T16:10:44.885Z,0.40
2022-09-24T16:13:13.194Z,0.43
2022-09-24T16:15:41.337Z,0.47
2022-09-24T16:18:12.325Z,0.40
2022-09-24T16:20:41.830Z,0.30
2022-09-24T16:23:14.940Z,0.40
2022-09-24T16:25:43.157Z,0.40
2022-09-24T16:28:10.506Z,0.70
2022-09-24T16:30:39.212Z,0.50
2022-09-24T16:33:06.547Z,0.60
2022-09-24T16:35:33.916Z,0.50
2022-09-24T16:38:02.587Z,0.60
2022-09-24T16:40:30.185Z,0.52
2022-09-24T16:42:57.607Z,0.45
2022-09-24T16:45:24.947Z,0.40
2022-09-24T16:47:52.315Z,0.50
2022-09-24T16:50:23.368Z,0.40
2022-09-24T16:52:54.682Z,0.40
2022-09-24T16:55:24.345Z,0.60
2022-09-24T16:57:52.456Z,0.52
2022-09-24T17:00:20.640Z,0.50
2022-09-24T17:02:48.066Z,1.20
2022-09-24T17:05:15.480Z,0.55
2022-09-24T17:07:42.816Z,0.75
2022-09-24T17:10:13.598Z,0.70
2022-09-24T17:12:43.436Z,0.90
2022-09-24T17:15:11.052Z,1.02
2022-09-24T17:17:48.623Z,0.90
2022-09-24T17:20:17.761Z,0.70
2022-09-24T17:22:45.282Z,0.70
2022-09-24T17:25:12.633Z,0.77
2022-09-24T17:27:40.777Z,0.70
2022-09-24T17:30:10.819Z,0.60
2022-09-24T17:32:38.156Z,0.60
2022-09-24T17:35:06.252Z,0.70
2022-09-24T17:37:33.707Z,0.60
2022-09-24T17:40:01.087Z,0.60
2022-09-24T17:42:28.543Z,0.60
2022-09-24T17:44:55.883Z,0.68
2022-09-24T17:47:44.605Z,1.00
2022-09-24T17:50:12.025Z,1.38
2022-09-24T17:52:39.404Z,1.30
2022-09-24T17:55:08.440Z,1.20
2022-09-24T17:57:35.789Z,1.23
2022-09-24T18:00:04.284Z,1.20
2022-09-24T18:02:32.984Z,1.40
2022-09-24T18:05:00.384Z,1.42
2022-09-24T18:07:27.696Z,1.23
2022-09-24T18:09:56.005Z,0.80
2022-09-24T18:12:23.518Z,0.70
2022-09-24T18:14:50.862Z,0.70
2022-09-24T18:17:18.194Z,0.60
2022-09-24T18:19:46.842Z,0.70
2022-09-24T18:22:14.169Z,0.60
2022-09-24T18:24:41.983Z,0.50
2022-09-24T18:27:09.416Z,0.55
2022-09-24T18:29:37.506Z,0.60
2022-09-24T18:32:05.439Z,0.60
2022-09-24T18:34:32.914Z,0.90
2022-09-24T18:37:01.589Z,0.70
2022-09-24T18:39:29.164Z,0.77
2022-09-24T18:41:56.497Z,0.80
2022-09-24T18:44:25.202Z,0.80
2022-09-24T18:46:52.614Z,0.90
2022-09-24T18:49:20.256Z,0.90
2022-09-24T18:51:48.867Z,1.10
2022-09-24T18:54:18.306Z,1.25
2022-09-24T18:56:46.628Z,1.33
2022-09-24T18:59:15.885Z,1.65
2022-09-24T19:01:44.963Z,1.30
2022-09-24T19:04:14.379Z,1.08
2022-09-24T19:06:43.578Z,0.85
2022-09-24T19:09:13.352Z,0.77
2022-09-24T19:11:42.298Z,0.80
2022-09-24T19:14:11.289Z,0.63
2022-09-24T19:16:38.703Z,0.60
2022-09-24T19:19:06.260Z,0.80
2022-09-24T19:21:33.674Z,0.80
2022-09-24T19:24:01.098Z,0.68
2022-09-24T19:26:30.395Z,0.65
2022-09-24T19:28:59.440Z,0.70
2022-09-24T19:31:30.339Z,0.70
2022-09-24T19:34:00.025Z,0.88
2022-09-24T19:36:27.418Z,0.70
2022-09-24T19:38:54.837Z,0.60
2022-09-24T19:41:26.484Z,0.70
2022-09-24T19:43:55.926Z,0.60
2022-09-24T19:46:26.363Z,0.70
2022-09-24T19:48:55.353Z,0.70
2022-09-24T19:51:24.603Z,0.60
2022-09-24T19:53:54.122Z,0.60
2022-09-24T19:56:23.328Z,0.70
2022-09-24T19:58:52.644Z,0.68
2022-09-24T20:01:21.583Z,0.70
2022-09-24T20:03:50.850Z,0.63
2022-09-24T20:06:20.003Z,0.65
2022-09-24T20:08:47.970Z,0.70
2022-09-24T20:11:20.251Z,0.65
2022-09-24T20:13:48.326Z,0.70
2022-09-24T20:16:19.542Z,0.68
2022-09-24T20:18:47.661Z,0.70
2022-09-24T20:21:18.272Z,0.60
2022-09-24T20:23:46.313Z,0.70
2022-09-24T20:26:32.824Z,0.70
2022-09-24T20:29:00.241Z,0.60
2022-09-24T20:31:27.697Z,0.60
2022-09-24T20:33:55.154Z,0.60
2022-09-24T20:36:25.326Z,0.50
2022-09-24T20:38:53.697Z,0.60
2022-09-24T20:41:23.486Z,0.52
2022-09-24T20:43:51.244Z,0.50
2022-09-24T20:46:21.940Z,0.50
2022-09-24T20:48:49.514Z,0.50
2022-09-24T20:51:18.629Z,0.50
2022-09-24T20:53:48.580Z,0.40
2022-09-24T20:56:17.017Z,0.50
2022-09-24T20:58:44.416Z,0.50
2022-09-24T21:01:12.426Z,0.60
2022-09-24T21:03:45.839Z,0.50
2022-09-24T21:06:14.885Z,0.50
2022-09-24T21:08:44.298Z,0.43
2022-09-24T21:11:15.956Z,0.50
2022-09-24T21:13:45.116Z,0.50
2022-09-24T21:16:13.002Z,0.50
2022-09-24T21:18:44.327Z,0.40
2022-09-24T21:21:15.981Z,0.40
2022-09-24T21:23:44.004Z,0.40
2022-09-24T21:26:14.623Z,0.50
2022-09-24T21:28:43.514Z,0.40
2022-09-24T21:31:11.092Z,0.40
2022-09-24T21:33:38.485Z,0.40
2022-09-24T21:36:07.822Z,0.40
2022-09-24T21:38:35.360Z,0.40
2022-09-24T21:41:03.569Z,0.40
2022-09-24T21:43:34.983Z,0.60
2022-09-24T21:46:04.890Z,0.60
2022-09-24T21:48:33.535Z,0.70
2022-09-24T21:51:05.736Z,0.60
2022-09-24T21:53:34.034Z,0.70
2022-09-24T21:56:02.205Z,0.70
2022-09-24T21:58:31.860Z,0.70
2022-09-24T22:01:04.766Z,0.70
2022-09-24T22:03:33.035Z,0.70
2022-09-24T22:06:03.280Z,0.70
2022-09-24T22:08:31.920Z,0.73
2022-09-24T22:11:05.368Z,0.80
2022-09-24T22:13:36.815Z,0.70
2022-09-24T22:16:05.783Z,0.82
2022-09-24T22:18:34.152Z,0.90
2022-09-24T22:21:08.013Z,0.80
2022-09-24T22:23:35.444Z,0.82
2022-09-24T22:26:02.914Z,0.70
2022-09-24T22:28:30.570Z,0.82
2022-09-24T22:31:04.160Z,0.70
2022-09-24T22:33:49.781Z,0.70
2022-09-24T22:36:17.271Z,0.80
2022-09-24T22:38:44.671Z,0.80
2022-09-24T22:41:12.572Z,0.80
2022-09-24T22:43:40.284Z,0.77
2022-09-24T22:46:11.476Z,0.80
2022-09-24T22:48:39.764Z,0.98
2022-09-24T22:51:08.748Z,1.00
2022-09-24T22:53:38.213Z,1.00
2022-09-24T22:56:07.773Z,1.00
2022-09-24T22:58:36.295Z,0.90
2022-09-24T23:01:09.271Z,1.00
2022-09-24T23:03:37.755Z,1.00
2022-09-24T23:06:05.931Z,0.80
2022-09-24T23:08:34.273Z,0.75
2022-09-24T23:11:07.084Z,0.80
2022-09-24T23:13:34.740Z,0.60
2022-09-24T23:16:12.526Z,0.70
2022-09-24T23:18:40.119Z,0.80
2022-09-24T23:21:08.997Z,0.70
2022-09-24T23:23:36.791Z,0.70
2022-09-24T23:26:07.067Z,0.70
2022-09-24T23:28:35.485Z,0.60
2022-09-24T23:31:03.986Z,0.60
2022-09-24T23:33:34.289Z,0.60
2022-09-24T23:36:03.057Z,0.60
2022-09-24T23:38:31.049Z,0.60
2022-09-24T23:40:58.703Z,0.60
2022-09-24T23:43:26.067Z,0.55
2022-09-24T23:45:53.519Z,0.70
2022-09-24T23:48:21.502Z,0.75
2022-09-24T23:50:51.099Z,0.60
2022-09-24T23:53:21.652Z,0.60
2022-09-24T23:55:50.177Z,0.75
2022-09-24T23:58:20.018Z,0.57
